メインページ
METAR-TAF:

METAR-TAF

空港 :

ラバト, モロッコ

ラバト=サレ空港

緯度: 34-03N, 経度: 006-46W, 海抜: 84m

現時点の気象観測

当レポートは21分前の11:30(UTC)に作成
西/北西の風 8kt、西/南西から北/北西の間で変化する
気温 23°C
湿度 65%
気圧 1012 hPa
視程: 5000m
高度1000ftの雲は散在している
高度1600ftの曇り

METAR: GMME 241130Z 29008KT 250V330 5000 SCT010 OVC016 23/16 Q1012 NOSIG

時間: 11:51 (11:51 UTC)

予報

当レポートは51分前の11:00(UTC)に作成
予報は24日の 12時(UTC)から 25日の 18時(UTC)まで有効
西/南西の風 10kt
視程: 5000m
高度1000ftの雲は散在している
高度1600ftの曇り
確率 40% :
25日の 00時(UTC)から 25日の 06時(UTC)まで一時的に
視程: 5000m
高度1600ftの雲は散在している
高度1300ftの千切れ雲あり
25日の 08時(UTC)から 25日の 12時(UTC)まで徐々に
南東の風 7kt
高度2000ftの千切れ雲あり

TAF: GMME 241100Z 2412/2518 25010KT 5000 SCT010 OVC016 PROB40 TEMPO 2500/2506 5000 RA SCT016 BKN013 BECMG 2508/2512 14007KT 800 NSW BKN020

4,000以上の空港の気象観測と天気予報(METAR報とTAF報)

利用可能な観測所は地図上に黄色い丸と赤い丸で示す。

丸の上にカーソルを重ねると観測所名を参照できる。

次にクリックすると気象観測と天気予報を参照できる。

マップの切り替え:黒色「×」印の緑ボタンをクリックして拡大、「-」印の緑ボタンをクリックして縮小、緑色の三角印をクリックして隣りの地図に切り替え


METAR-TAF: